Rockville, Rhode Island
Current Conditions -  °F | °C
As of 10:53 PM on Wednesday 22 Oct 2014 (Local Time) from KWST Reporting Station
Light Rain Light Rain  
Wind Chill: 53°   Ceiling: 1400
Heat Index: 53°   Visibility: 4mi
Dew Point: 51°   Wind: 17mph
Humidity: 93%   Direction: 10°N
Pressure: 29.7"   Gusts: 26mph
Location:  41.52°N, 71.76°W
Report Text: KWST 230253Z AUTO 01015G23KT 4SM -RA BR OVC014 12/11 A2970 RMK AO2 LTG DSNT S AND SW SLP058 P0006 60043 T01170106 53012
Loading
Personal Weather Stations






























Interactive Weather Map
Tropical Storm Tracking
New forecast layout! Learn more

10-Day Weather Forecast

Advertisements
Track Severe Weather on mobile